If you wish to contribute or participate in the discussions about articles you are invited to join SKYbrary as a registered user

 Actions

Boa Vista International Airport

From SKYbrary Wiki

SBBV
Airport
ICAO: SBBV – IATA: BVB
Summary
Name Boa Vista International Airport
Region South America and Caribbean
Territory "SBB" is not in the list (AG, AN, AY, BG, BI, BK, C, CT, DA, DB, ...) of allowed values for the "ICAO Territory" property.
Location Boa Vista, Roraima
Serving Boa Vista
Elevation 84.125 m
276 ft84.125 m
Coordinates 2° 50' 29.00" N, 60° 41' 31.99" W
Runways
Designator Length Width Surface ROPS
8/26 2700 m8,858.268 ft
45 m147.638 ft
ASP yes/yes


METAR
Observation SBBV 242200Z 12011KT 9999 SCT040 35/18 Q1007
Station Boa Vista, Boa Vista Intl
Date/Time 24 April 2019 22:00:00
Wind direction 120°
Wind speed 11 kts
Lowest cloud amount scattered clouds
Temperature 35°C
Dew point 18°C
Humidity 36%
QNH 1007 hPa
Weather condition n/a

Boa Vista-Atlas Brasil Cantanhede International Airport is the airport serving Boa Vista, Brazil. Since April 13, 2009 the airport is named after Atlas Brasil Cantanhede.

Climatology

Tropical savanna climate (Köppen climate classification Aw)

Maps

Terrain

Loading map...

Airport Layout

Loading map...


Accidents & Serious Incidents at or in vicinity of SBBV

None on SKYbrary